Terminal Aerodrome Forecast
Issued by NWS Albany, NY

Home | Current Version | Previous Version | Text Only | Print | Product List | Glossary On
Versions: 1 2 3 4 5 6 7 8 9 10 11 12 13 14 15 16 17 18
907
FTUS41 KALY 102324
TAFPOU
TAF
KPOU 102324Z 1100/1124 VRB03KT P6SM SCT050
     FM111300 19005KT P6SM BKN120 OVC200
     FM112100 17004KT P6SM VCSH BKN050 OVC090
     FM112300 VRB03KT 5SM -SN BR BKN025 OVC040=

USA.gov is the U.S. government's official web portal to all federal, state and local government web resources and services.